sensor_id;sensor_type;location;lat;lon;timestamp;P1;P2;P0
74436;PMS7003;62868;52.360;30.424;2024-03-02T00:04:44;5.3;3.3;2
74436;PMS7003;62868;52.360;30.424;2024-03-02T00:09:32;8.7;5.7;4.7
74436;PMS7003;62868;52.360;30.424;2024-03-02T00:14:40;5.3;5.3;4
74436;PMS7003;62868;52.360;30.424;2024-03-02T00:19:52;6.3;4.7;3.3
74436;PMS7003;62868;52.360;30.424;2024-03-02T00:24:44;4.8;4.3;3.5
74436;PMS7003;62868;52.360;30.424;2024-03-02T00:29:36;6;5.7;3.3
74436;PMS7003;62868;52.360;30.424;2024-03-02T00:34:54;6.7;6;4.3
74436;PMS7003;62868;52.360;30.424;2024-03-02T00:39:52;7.7;6.3;4.7
74436;PMS7003;62868;52.360;30.424;2024-03-02T00:44:44;9.5;7.5;5.3
74436;PMS7003;62868;52.360;30.424;2024-03-02T00:49:26;8.3;6;4.3
74436;PMS7003;62868;52.360;30.424;2024-03-02T00:54:21;7;4.3;4
74436;PMS7003;62868;52.360;30.424;2024-03-02T00:59:26;6.3;4.3;2.7
74436;PMS7003;62868;52.360;30.424;2024-03-02T01:04:26;5.8;4.3;3.5
74436;PMS7003;62868;52.360;30.424;2024-03-02T01:09:26;6;5;3.7
74436;PMS7003;62868;52.360;30.424;2024-03-02T01:14:26;6;4;2.7
74436;PMS7003;62868;52.360;30.424;2024-03-02T01:19:41;5;3.5;2.3
74436;PMS7003;62868;52.360;30.424;2024-03-02T01:24:32;5.3;3.3;2
74436;PMS7003;62868;52.360;30.424;2024-03-02T01:29:52;4.7;2;1.7
74436;PMS7003;62868;52.360;30.424;2024-03-02T01:34:44;5.7;4.3;2.7
74436;PMS7003;62868;52.360;30.424;2024-03-02T01:39:40;5.5;3.8;2.5
74436;PMS7003;62868;52.360;30.424;2024-03-02T01:44:20;5;3.7;2.7
74436;PMS7003;62868;52.360;30.424;2024-03-02T01:49:40;6.3;5.3;3.7
74436;PMS7003;62868;52.360;30.424;2024-03-02T01:54:44;6.3;4.7;2.7
74436;PMS7003;62868;52.360;30.424;2024-03-02T01:59:32;6.8;4.8;3
74436;PMS7003;62868;52.360;30.424;2024-03-02T02:04:30;5;4.3;2.7
74436;PMS7003;62868;52.360;30.424;2024-03-02T02:09:44;4.3;3.3;1.7
74436;PMS7003;62868;52.360;30.424;2024-03-02T02:14:46;4.3;4;2.7
74436;PMS7003;62868;52.360;30.424;2024-03-02T02:19:34;3.8;2.5;2.3
74436;PMS7003;62868;52.360;30.424;2024-03-02T02:24:44;4.7;4;2
74436;PMS7003;62868;52.360;30.424;2024-03-02T02:29:26;4.3;3.3;2
74436;PMS7003;62868;52.360;30.424;2024-03-02T02:34:27;2.7;2.7;1.7
74436;PMS7003;62868;52.360;30.424;2024-03-02T02:39:34;4.3;3;2.5
74436;PMS7003;62868;52.360;30.424;2024-03-02T02:44:20;3;2.3;1.7
74436;PMS7003;62868;52.360;30.424;2024-03-02T02:49:44;4.7;3.3;2
74436;PMS7003;62868;52.360;30.424;2024-03-02T02:54:40;4;3.3;2
74436;PMS7003;62868;52.360;30.424;2024-03-02T02:59:26;4.5;3;1.8
74436;PMS7003;62868;52.360;30.424;2024-03-02T03:04:34;3;2.7;1.3
74436;PMS7003;62868;52.360;30.424;2024-03-02T03:09:44;4;2.7;2
74436;PMS7003;62868;52.360;30.424;2024-03-02T03:14:37;3.3;2.3;1.5
74436;PMS7003;62868;52.360;30.424;2024-03-02T03:19:32;4;3.3;2
74436;PMS7003;62868;52.360;30.424;2024-03-02T03:24:22;5;3.3;1.7
74436;PMS7003;62868;52.360;30.424;2024-03-02T03:29:44;4.7;4;2
74436;PMS7003;62868;52.360;30.424;2024-03-02T03:34:20;3.3;3.3;1.7
74436;PMS7003;62868;52.360;30.424;2024-03-02T03:39:20;3;3;1.7
74436;PMS7003;62868;52.360;30.424;2024-03-02T03:44:44;2.8;2.3;1.5
74436;PMS7003;62868;52.360;30.424;2024-03-02T03:49:46;4;2.3;1.7
74436;PMS7003;62868;52.360;30.424;2024-03-02T03:54:28;3.3;2.3;1.7
74436;PMS7003;62868;52.360;30.424;2024-03-02T03:59:44;4;2.5;1.8
74436;PMS7003;62868;52.360;30.424;2024-03-02T04:04:20;3.7;2;2
74436;PMS7003;62868;52.360;30.424;2024-03-02T04:09:26;3.3;2.7;1.7
74436;PMS7003;62868;52.360;30.424;2024-03-02T04:14:36;3;2.7;1.3
74436;PMS7003;62868;52.360;30.424;2024-03-02T04:19:20;4.8;3.5;1.8
74436;PMS7003;62868;52.360;30.424;2024-03-02T04:24:26;4.7;4.3;2.7
74436;PMS7003;62868;52.360;30.424;2024-03-02T04:29:52;6.7;4.7;3
74436;PMS7003;62868;52.360;30.424;2024-03-02T04:34:38;7.3;6;4.3
74436;PMS7003;62868;52.360;30.424;2024-03-02T04:39:46;9;7.8;5.3
74436;PMS7003;62868;52.360;30.424;2024-03-02T04:44:52;7;5.3;4.3
74436;PMS7003;62868;52.360;30.424;2024-03-02T04:49:26;5.3;5;3.3
74436;PMS7003;62868;52.360;30.424;2024-03-02T04:54:54;5;4.3;3.3
74436;PMS7003;62868;52.360;30.424;2024-03-02T04:59:52;5.3;4.8;3
74436;PMS7003;62868;52.360;30.424;2024-03-02T05:04:45;6.7;5;2.7
74436;PMS7003;62868;52.360;30.424;2024-03-02T05:09:33;7.7;5.3;4.3
74436;PMS7003;62868;52.360;30.424;2024-03-02T05:14:40;6.3;5.3;4.3
74436;PMS7003;62868;52.360;30.424;2024-03-02T05:19:45;9.3;5.3;4.3
74436;PMS7003;62868;52.360;30.424;2024-03-02T05:24:52;6.7;5.7;4.3
74436;PMS7003;62868;52.360;30.424;2024-03-02T05:29:37;5.3;5.3;3.7
74436;PMS7003;62868;52.360;30.424;2024-03-02T05:34:53;7.7;5.3;4
74436;PMS7003;62868;52.360;30.424;2024-03-02T05:39:20;10.8;9;6.5
74436;PMS7003;62868;52.360;30.424;2024-03-02T05:44:27;13.3;10;7.7
74436;PMS7003;62868;52.360;30.424;2024-03-02T05:49:27;9.3;7;5.3
74436;PMS7003;62868;52.360;30.424;2024-03-02T05:54:20;7.7;6.7;5.3
74436;PMS7003;62868;52.360;30.424;2024-03-02T05:59:31;6.8;5.5;4.5
74436;PMS7003;62868;52.360;30.424;2024-03-02T06:04:29;6.3;5.3;5
74436;PMS7003;62868;52.360;30.424;2024-03-02T06:09:22;10.3;7.7;5.3
74436;PMS7003;62868;52.360;30.424;2024-03-02T06:14:21;9;8;5.3
74436;PMS7003;62868;52.360;30.424;2024-03-02T06:19:53;8.5;6;4
74436;PMS7003;62868;52.360;30.424;2024-03-02T06:24:27;7;5.7;4.3
74436;PMS7003;62868;52.360;30.424;2024-03-02T06:29:44;6.7;5.7;3.7
74436;PMS7003;62868;52.360;30.424;2024-03-02T06:34:29;6.5;6;4.5
74436;PMS7003;62868;52.360;30.424;2024-03-02T06:39:48;9.7;7.3;5.7
74436;PMS7003;62868;52.360;30.424;2024-03-02T06:44:27;8.7;7;5.3
74436;PMS7003;62868;52.360;30.424;2024-03-02T06:49:55;10.3;8;5.3
74436;PMS7003;62868;52.360;30.424;2024-03-02T06:54:19;11;9.5;7
74436;PMS7003;62868;52.360;30.424;2024-03-02T06:59:55;12;10.3;7
74436;PMS7003;62868;52.360;30.424;2024-03-02T07:04:29;12;10.3;7
74436;PMS7003;62868;52.360;30.424;2024-03-02T07:09:53;13.7;11;7
74436;PMS7003;62868;52.360;30.424;2024-03-02T07:14:39;10;8.8;7
74436;PMS7003;62868;52.360;30.424;2024-03-02T07:19:21;12.3;9.7;5.7
74436;PMS7003;62868;52.360;30.424;2024-03-02T07:24:29;10.7;8.3;6.3
74436;PMS7003;62868;52.360;30.424;2024-03-02T07:29:21;8.3;6.3;4.7
74436;PMS7003;62868;52.360;30.424;2024-03-02T07:34:21;7.3;6.5;4.5
74436;PMS7003;62868;52.360;30.424;2024-03-02T07:39:29;13;10.3;7.3
74436;PMS7003;62868;52.360;30.424;2024-03-02T07:44:45;10.3;8.7;5
74436;PMS7003;62868;52.360;30.424;2024-03-02T07:49:35;9.3;7.3;5.7
74436;PMS7003;62868;52.360;30.424;2024-03-02T07:54:55;9.8;7.8;5.3
74436;PMS7003;62868;52.360;30.424;2024-03-02T07:59:35;12.3;10;7.3
74436;PMS7003;62868;52.360;30.424;2024-03-02T08:04:56;11;8.3;6.3
74436;PMS7003;62868;52.360;30.424;2024-03-02T08:09:35;8.7;8;6.3
74436;PMS7003;62868;52.360;30.424;2024-03-02T08:14:47;13.5;12;8.3
74436;PMS7003;62868;52.360;30.424;2024-03-02T08:19:35;10;8.7;6
74436;PMS7003;62868;52.360;30.424;2024-03-02T08:24:43;10;8.3;7.7
74436;PMS7003;62868;52.360;30.424;2024-03-02T08:29:55;11.3;8.5;7
74436;PMS7003;62868;52.360;30.424;2024-03-02T08:34:47;10.7;9.3;6.7
74436;PMS7003;62868;52.360;30.424;2024-03-02T08:39:21;12.3;10.3;7
74436;PMS7003;62868;52.360;30.424;2024-03-02T08:44:55;13;10.7;7.7
74436;PMS7003;62868;52.360;30.424;2024-03-02T08:49:55;14.8;11;8.8
74436;PMS7003;62868;52.360;30.424;2024-03-02T08:54:45;12;11.7;9
74436;PMS7003;62868;52.360;30.424;2024-03-02T08:59:53;10;9;6.3
74436;PMS7003;62868;52.360;30.424;2024-03-02T09:04:33;11.7;10.7;7.7
74436;PMS7003;62868;52.360;30.424;2024-03-02T09:09:33;11.3;9.8;6.8
74436;PMS7003;62868;52.360;30.424;2024-03-02T09:14:21;12.7;11;8.3
74436;PMS7003;62868;52.360;30.424;2024-03-02T09:19:21;9;7.7;6
74436;PMS7003;62868;52.360;30.424;2024-03-02T09:24:33;10;8.3;6
74436;PMS7003;62868;52.360;30.424;2024-03-02T09:29:43;8.5;6.3;4.5
74436;PMS7003;62868;52.360;30.424;2024-03-02T09:34:33;7.7;6.3;4.3
74436;PMS7003;62868;52.360;30.424;2024-03-02T09:39:55;16.3;14;10.7
74436;PMS7003;62868;52.360;30.424;2024-03-02T09:44:45;13;11.3;9.3
74436;PMS7003;62868;52.360;30.424;2024-03-02T09:49:55;12.8;10.5;8.8
74436;PMS7003;62868;52.360;30.424;2024-03-02T09:54:21;10;9;7
74436;PMS7003;62868;52.360;30.424;2024-03-02T09:59:23;8.3;7.7;5
74436;PMS7003;62868;52.360;30.424;2024-03-02T10:04:39;8;6;3.7
74436;PMS7003;62868;52.360;30.424;2024-03-02T10:09:26;6.5;4.8;3.8
74436;PMS7003;62868;52.360;30.424;2024-03-02T10:14:37;6;3.7;3.3
74436;PMS7003;62868;52.360;30.424;2024-03-02T10:19:45;3.3;3;2.3
74436;PMS7003;62868;52.360;30.424;2024-03-02T10:24:55;4.8;3.5;2.8
74436;PMS7003;62868;52.360;30.424;2024-03-02T10:29:38;4.7;4;3
74436;PMS7003;62868;52.360;30.424;2024-03-02T10:34:47;5;3;2.5
74436;PMS7003;62868;52.360;30.424;2024-03-02T10:39:34;5.7;3.7;2.3
74436;PMS7003;62868;52.360;30.424;2024-03-02T10:44:55;7.3;5.3;4
74436;PMS7003;62868;52.360;30.424;2024-03-02T10:49:21;5;4.5;3.3
74436;PMS7003;62868;52.360;30.424;2024-03-02T10:54:21;8.7;5.7;4.3
74436;PMS7003;62868;52.360;30.424;2024-03-02T10:59:49;24;20;14.7
74436;PMS7003;62868;52.360;30.424;2024-03-02T11:04:55;7.3;6.7;5.3
74436;PMS7003;62868;52.360;30.424;2024-03-02T11:09:47;5.5;5.3;4.3
74436;PMS7003;62868;52.360;30.424;2024-03-02T11:14:55;5.3;5.3;4.3
74436;PMS7003;62868;52.360;30.424;2024-03-02T11:19:45;5.3;4.7;4
74436;PMS7003;62868;52.360;30.424;2024-03-02T11:24:47;15.7;14.3;9.3
74436;PMS7003;62868;52.360;30.424;2024-03-02T11:29:42;13.8;12.8;8.8
74436;PMS7003;62868;52.360;30.424;2024-03-02T11:34:44;10;7.3;6
74436;PMS7003;62868;52.360;30.424;2024-03-02T11:39:45;9.3;6.3;4.7
74436;PMS7003;62868;52.360;30.424;2024-03-02T11:44:21;4;3.3;2.3
74436;PMS7003;62868;52.360;30.424;2024-03-02T11:49:37;5.8;5;3.8
74436;PMS7003;62868;52.360;30.424;2024-03-02T11:54:43;9.3;7.3;5.7
74436;PMS7003;62868;52.360;30.424;2024-03-02T11:59:51;7.3;6;5
74436;PMS7003;62868;52.360;30.424;2024-03-02T12:04:37;5.5;5.3;3.8
74436;PMS7003;62868;52.360;30.424;2024-03-02T12:09:45;4.3;4;3
74436;PMS7003;62868;52.360;30.424;2024-03-02T12:14:21;5.3;4.3;3.3
74436;PMS7003;62868;52.360;30.424;2024-03-02T12:19:27;4.7;4;3
74436;PMS7003;62868;52.360;30.424;2024-03-02T12:24:27;4.8;4;3
74436;PMS7003;62868;52.360;30.424;2024-03-02T12:29:27;5;3.3;2.3
74436;PMS7003;62868;52.360;30.424;2024-03-02T12:34:21;4;3;2.7
74436;PMS7003;62868;52.360;30.424;2024-03-02T12:39:51;4.7;4;3
74436;PMS7003;62868;52.360;30.424;2024-03-02T12:44:43;16;13.3;10
74436;PMS7003;62868;52.360;30.424;2024-03-02T12:49:51;42.7;34;21.7
74436;PMS7003;62868;52.360;30.424;2024-03-02T12:54:47;17;14.3;8.3
74436;PMS7003;62868;52.360;30.424;2024-03-02T12:59:39;23;19.7;13
74436;PMS7003;62868;52.360;30.424;2024-03-02T13:04:52;14.8;14;10.3
74436;PMS7003;62868;52.360;30.424;2024-03-02T13:09:53;7.3;5.7;4.3
74436;PMS7003;62868;52.360;30.424;2024-03-02T13:14:48;6;5;4
74436;PMS7003;62868;52.360;30.424;2024-03-02T13:19:35;16.3;15;10.7
74436;PMS7003;62868;52.360;30.424;2024-03-02T13:24:41;15;13.5;10
74436;PMS7003;62868;52.360;30.424;2024-03-02T13:29:43;7.7;6.7;5
74436;PMS7003;62868;52.360;30.424;2024-03-02T13:34:53;5;3.7;2.7
74436;PMS7003;62868;52.360;30.424;2024-03-02T13:39:37;10;8;6
74436;PMS7003;62868;52.360;30.424;2024-03-02T13:44:53;22.8;20.8;14.3
74436;PMS7003;62868;52.360;30.424;2024-03-02T13:49:23;10;7.7;5.7
74436;PMS7003;62868;52.360;30.424;2024-03-02T13:54:21;6.3;4.7;3.3
74436;PMS7003;62868;52.360;30.424;2024-03-02T13:59:27;3.5;3;2
74436;PMS7003;62868;52.360;30.424;2024-03-02T14:04:43;4.7;4;2.7
74436;PMS7003;62868;52.360;30.424;2024-03-02T14:09:21;4.3;4.3;3
74436;PMS7003;62868;52.360;30.424;2024-03-02T14:14:21;3.7;3;2
74436;PMS7003;62868;52.360;30.424;2024-03-02T14:19:23;3;2.3;2
74436;PMS7003;62868;52.360;30.424;2024-03-02T14:24:21;9.7;7.7;5.3
74436;PMS7003;62868;52.360;30.424;2024-03-02T14:29:51;19.3;16;9
74436;PMS7003;62868;52.360;30.424;2024-03-02T14:34:31;36;30;18.5
74436;PMS7003;62868;52.360;30.424;2024-03-02T14:39:51;16.5;13.3;9.3
74436;PMS7003;62868;52.360;30.424;2024-03-02T14:44:21;7.7;7;5.7
74436;PMS7003;62868;52.360;30.424;2024-03-02T14:49:45;18;15;9.7
74436;PMS7003;62868;52.360;30.424;2024-03-02T14:54:27;11;9.5;6.5
74436;PMS7003;62868;52.360;30.424;2024-03-02T14:59:45;4.3;4.3;3.3
74436;PMS7003;62868;52.360;30.424;2024-03-02T15:04:51;4.7;3.3;3
74436;PMS7003;62868;52.360;30.424;2024-03-02T15:09:45;4.3;3.7;3.3
74436;PMS7003;62868;52.360;30.424;2024-03-02T15:14:37;3.8;3;2.3
74436;PMS7003;62868;52.360;30.424;2024-03-02T15:19:51;5.3;3.7;3
74436;PMS7003;62868;52.360;30.424;2024-03-02T15:24:51;5.3;4.3;3
74436;PMS7003;62868;52.360;30.424;2024-03-02T15:29:43;10;8.3;6
74436;PMS7003;62868;52.360;30.424;2024-03-02T15:34:31;14.8;13;9.5
74436;PMS7003;62868;52.360;30.424;2024-03-02T15:39:29;22.3;18;10.3
74436;PMS7003;62868;52.360;30.424;2024-03-02T15:44:33;17.7;13.7;9
74436;PMS7003;62868;52.360;30.424;2024-03-02T15:49:21;10.7;8.7;7.3
74436;PMS7003;62868;52.360;30.424;2024-03-02T15:54:43;17.3;15.3;11.3
74436;PMS7003;62868;52.360;30.424;2024-03-02T15:59:31;18;14.7;10.7
74436;PMS7003;62868;52.360;30.424;2024-03-02T16:04:51;13.3;11.3;9
74436;PMS7003;62868;52.360;30.424;2024-03-02T16:09:27;14;11;8.7
74436;PMS7003;62868;52.360;30.424;2024-03-02T16:14:51;12.5;10.5;7.8
74436;PMS7003;62868;52.360;30.424;2024-03-02T16:19:51;10;8;6.3
74436;PMS7003;62868;52.360;30.424;2024-03-02T16:24:45;9.7;6.7;6
74436;PMS7003;62868;52.360;30.424;2024-03-02T16:29:33;9.7;7.7;5.7
74436;PMS7003;62868;52.360;30.424;2024-03-02T16:34:51;13.5;10.5;7
74436;PMS7003;62868;52.360;30.424;2024-03-02T16:39:51;11.3;9.3;6.7
74436;PMS7003;62868;52.360;30.424;2024-03-02T16:44:45;11;8.7;6.7
74436;PMS7003;62868;52.360;30.424;2024-03-02T16:49:31;9.8;8.3;5.8
74436;PMS7003;62868;52.360;30.424;2024-03-02T16:54:51;8;6.3;5.3
74436;PMS7003;62868;52.360;30.424;2024-03-02T16:59:45;9;7.3;5.7
74436;PMS7003;62868;52.360;30.424;2024-03-02T17:04:43;9;7;4.7
74436;PMS7003;62868;52.360;30.424;2024-03-02T17:09:45;10;8.3;6.3
74436;PMS7003;62868;52.360;30.424;2024-03-02T17:14:21;10.3;8.7;5.7
74436;PMS7003;62868;52.360;30.424;2024-03-02T17:19:21;7;5.3;4.3
74436;PMS7003;62868;52.360;30.424;2024-03-02T17:24:21;8.3;7.3;5.3
74436;PMS7003;62868;52.360;30.424;2024-03-02T17:29:21;14.3;11.3;7.5
74436;PMS7003;62868;52.360;30.424;2024-03-02T17:34:31;12.3;10;6.3
74436;PMS7003;62868;52.360;30.424;2024-03-02T17:39:37;9.7;8.3;5.7
74436;PMS7003;62868;52.360;30.424;2024-03-02T17:44:31;8.7;6.3;5.7
74436;PMS7003;62868;52.360;30.424;2024-03-02T17:49:49;9.3;8;6
74436;PMS7003;62868;52.360;30.424;2024-03-02T17:54:47;7;6.3;3.7
74436;PMS7003;62868;52.360;30.424;2024-03-02T17:59:45;10.7;8;6.3
74436;PMS7003;62868;52.360;30.424;2024-03-02T18:04:35;38;32;19.3
74436;PMS7003;62868;52.360;30.424;2024-03-02T18:09:45;45;35.3;21.5
74436;PMS7003;62868;52.360;30.424;2024-03-02T18:14:47;22;19;12.7
74436;PMS7003;62868;52.360;30.424;2024-03-02T18:19:35;10.7;9.3;7
74436;PMS7003;62868;52.360;30.424;2024-03-02T18:24:21;8.7;6.7;5
74436;PMS7003;62868;52.360;30.424;2024-03-02T18:29:47;5.5;2.8;2.3
74436;PMS7003;62868;52.360;30.424;2024-03-02T18:34:55;4.7;3.7;2.3
74436;PMS7003;62868;52.360;30.424;2024-03-02T18:39:39;3.3;2.3;2
74436;PMS7003;62868;52.360;30.424;2024-03-02T18:44:47;3.3;2.3;1.5
74436;PMS7003;62868;52.360;30.424;2024-03-02T18:49:21;3.3;3.3;1.7
74436;PMS7003;62868;52.360;30.424;2024-03-02T18:54:27;4;3;1.3
74436;PMS7003;62868;52.360;30.424;2024-03-02T18:59:27;3;2.7;2
74436;PMS7003;62868;52.360;30.424;2024-03-02T19:04:21;5.3;2.8;2.5
74436;PMS7003;62868;52.360;30.424;2024-03-02T19:09:39;4;2.3;2
74436;PMS7003;62868;52.360;30.424;2024-03-02T19:14:57;2.3;2.3;1.7
74436;PMS7003;62868;52.360;30.424;2024-03-02T19:19:49;2;1.7;1.3
74436;PMS7003;62868;52.360;30.424;2024-03-02T19:24:57;1.5;1.3;0.5
74436;PMS7003;62868;52.360;30.424;2024-03-02T19:29:57;1;1;1
74436;PMS7003;62868;52.360;30.424;2024-03-02T19:34:49;1.7;1.7;1
74436;PMS7003;62868;52.360;30.424;2024-03-02T19:39:59;3;1.7;1.7
74436;PMS7003;62868;52.360;30.424;2024-03-02T19:44:59;1.3;0.8;0.8
74436;PMS7003;62868;52.360;30.424;2024-03-02T19:49:49;2;1.3;0.7
74436;PMS7003;62868;52.360;30.424;2024-03-02T19:54:27;1.7;0.7;0.3
74436;PMS7003;62868;52.360;30.424;2024-03-02T19:59:45;2.7;1.7;0.7
74436;PMS7003;62868;52.360;30.424;2024-03-02T20:04:49;3.3;2.3;1.3
74436;PMS7003;62868;52.360;30.424;2024-03-02T20:09:59;3;2;1.5
74436;PMS7003;62868;52.360;30.424;2024-03-02T20:14:39;3.3;2;1.3
74436;PMS7003;62868;52.360;30.424;2024-03-02T20:24:33;8.3;5.7;3.3
74436;PMS7003;62868;52.360;30.424;2024-03-02T20:29:27;3.3;3;1.7
74436;PMS7003;62868;52.360;30.424;2024-03-02T20:34:33;3.8;2;1.5
74436;PMS7003;62868;52.360;30.424;2024-03-02T20:39:21;2;0.7;0.3
74436;PMS7003;62868;52.360;30.424;2024-03-02T20:44:49;2;1;0.7
74436;PMS7003;62868;52.360;30.424;2024-03-02T20:49:59;1.3;1;1
74436;PMS7003;62868;52.360;30.424;2024-03-02T20:54:31;2;0.5;0.3
74436;PMS7003;62868;52.360;30.424;2024-03-02T20:59:35;0.7;0.7;0.7
74436;PMS7003;62868;52.360;30.424;2024-03-02T21:04:59;0.7;0;0
74436;PMS7003;62868;52.360;30.424;2024-03-02T21:09:21;1.7;0.3;0
74436;PMS7003;62868;52.360;30.424;2024-03-02T21:14:59;0.5;0.3;0
74436;PMS7003;62868;52.360;30.424;2024-03-02T21:19:21;0;0;0
74436;PMS7003;62868;52.360;30.424;2024-03-02T21:24:49;1;0.3;0
74436;PMS7003;62868;52.360;30.424;2024-03-02T21:29:35;0.3;0;0
74436;PMS7003;62868;52.360;30.424;2024-03-02T21:34:23;0.5;0;0
74436;PMS7003;62868;52.360;30.424;2024-03-02T21:39:59;0;0;0
74436;PMS7003;62868;52.360;30.424;2024-03-02T21:44:59;0;0;0
74436;PMS7003;62868;52.360;30.424;2024-03-02T21:49:40;0.3;0;0
74436;PMS7003;62868;52.360;30.424;2024-03-02T21:54:59;0.5;0;0
74436;PMS7003;62868;52.360;30.424;2024-03-02T21:59:59;1.3;1;0.3
74436;PMS7003;62868;52.360;30.424;2024-03-02T22:04:23;1.7;0.7;0.3
74436;PMS7003;62868;52.360;30.424;2024-03-02T22:09:27;1;1;0.5
74436;PMS7003;62868;52.360;30.424;2024-03-02T22:14:29;0.7;0.7;0.3
74436;PMS7003;62868;52.360;30.424;2024-03-02T22:19:59;0.7;0;0
74436;PMS7003;62868;52.360;30.424;2024-03-02T22:24:59;1.7;0.7;0
74436;PMS7003;62868;52.360;30.424;2024-03-02T22:29:35;1.5;0.3;0.3
74436;PMS7003;62868;52.360;30.424;2024-03-02T22:34:35;2.7;2;1.3
74436;PMS7003;62868;52.360;30.424;2024-03-02T22:39:45;6;3;2
74436;PMS7003;62868;52.360;30.424;2024-03-02T22:44:35;6.3;4;1.7
74436;PMS7003;62868;52.360;30.424;2024-03-02T22:49:59;3.3;2.8;1.8
74436;PMS7003;62868;52.360;30.424;2024-03-02T22:54:49;2.3;1.3;0.7
74436;PMS7003;62868;52.360;30.424;2024-03-02T22:59:47;1.7;1.3;0.7
74436;PMS7003;62868;52.360;30.424;2024-03-02T23:04:33;2.7;2.3;1
74436;PMS7003;62868;52.360;30.424;2024-03-02T23:09:37;4.5;1.5;0.8
74436;PMS7003;62868;52.360;30.424;2024-03-02T23:14:47;1.7;0.7;0.3
74436;PMS7003;62868;52.360;30.424;2024-03-02T23:19:33;0.3;0;0
74436;PMS7003;62868;52.360;30.424;2024-03-02T23:24:27;1;0.7;0
74436;PMS7003;62868;52.360;30.424;2024-03-02T23:29:51;0.8;0.5;0.3
74436;PMS7003;62868;52.360;30.424;2024-03-02T23:34:57;1;0;0
74436;PMS7003;62868;52.360;30.424;2024-03-02T23:39:34;1;0;0
74436;PMS7003;62868;52.360;30.424;2024-03-02T23:44:47;1;0.3;0.3
74436;PMS7003;62868;52.360;30.424;2024-03-02T23:49:21;0.5;0;0
74436;PMS7003;62868;52.360;30.424;2024-03-02T23:54:27;0.7;0.7;0
74436;PMS7003;62868;52.360;30.424;2024-03-02T23:59:39;2.3;1;0.7
